Homestead ARB Airport
KHST : now visible

Airfield :











YOU CAN JOIN US ON...

 
LOGIN :

Register | Disclaimer

   EN    FR    IT 

 









Legend :    VFR   Marginal VFR   IFR   Intensive IFR   Very Intensive IFR
Visi :
Ceiling :
>= 8 km
>= 3000ft
5 to 8 km
1000 to 3000 ft
1500m to 5 km
500 to 1000 ft
800 to 1500m
200 to 500 ft
< 800m
< 200 ft
Symbols :   Thunderstorms  Fog  Heavy snow  Heavy precipitations  Wind > 20 kt






- Airport Elevation : 5 ft


KHST - Homestead ARB

CURRENT METAR :
  • 142326Z AUTO 11007KT 10SM FEW028 30/24 A2996 RMK AO2 DZB17E26 SLP149

EXPIRED METARs :
  • 142256Z AUTO 11008KT 10SM CLR 31/24 A2996 RMK AO2 SLP149 T03090235
  • 142156Z AUTO 11007KT 10SM FEW030 32/24 A2993 RMK AO2 SLP139 T03160242
  • 142056Z AUTO 09009KT 10SM SCT029 32/24 A2995 RMK AO2 SLP145 T03210241 57014

TAF TAF KHST
Valid from the 14 at 19:00 until the 16 at 01:00 UTC


141900Z 1419/1601 11009KT 9999 SCT030 SCT200 QNH2996INS
BECMG 1500/1501 10005KT 9999 FEW030 FEW200 QNH2993INS
BECMG 1516/1517 14009KT 9000 -SHRA VCTS SCT025CB SCT120 QNH2992INS TX32/1419Z TN27/1511Z
KZMA FIR / North America



MET'MAP, your aeronautical weather chart ! - Copyright ORBIFLY December 2007 - Disclaimer

ORBIFLY MET'MAP TEAM :

Programming & Development : Alexandra Zaïnal
Concept & original design : Baudouin d'Aumeries
Assistance for programming : Marc-Olivier Méhu
Technical & hardware support : Manuel Goepfert

Contact : metmap@orbifly.com




SOURCES & CREDITS :

   NOAA       Earth
Advisory